Terminal Aerodrome Forecast
Issued by NWS Wichita, KS

Home | Current Version | Previous Version | Text Only | Print | Product List | Glossary On
Versions: 1 2 3 4 5 6 7 8 9 10 11 12 13
000
FTUS43 KICT 192322
TAFICT
TAF
KICT 192322Z 2000/2024 17014KT P6SM FEW250
     FM200700 17011KT P6SM FEW250 WS020/19040KT
     FM201300 17016G24KT P6SM SCT150
     FM201700 17023G33KT P6SM BKN080=

USA.gov is the U.S. government's official web portal to all federal, state and local government web resources and services.